Time;durP1;ratioP1;P1;durP2;ratioP2;P2;SDS_P1;SDS_P2;PMS_P1;PMS_P2;Temp;Humidity;BMP_temperature;BMP_pressure;BME280_temperature;BME280_humidity;BME280_pressure;Samples;Min_cycle;Max_cycle;Signal;HPM_P1;HPM_P2
2021/03/06 00:02:10;;;;;;;1.13;0.57;;;5.50;58.10;;;;;;5058262;28;20401;-83
2021/03/06 00:04:36;;;;;;;0.73;0.37;;;5.50;58.10;;;;;;5057164;28;20056;-83
2021/03/06 00:07:02;;;;;;;1.40;0.90;;;5.50;58.10;;;;;;5056572;28;20039;-83
2021/03/06 00:09:29;;;;;;;0.43;0.43;;;5.50;58.10;;;;;;5052611;28;20052;-83
2021/03/06 00:11:55;;;;;;;3.20;0.43;;;5.50;58.60;;;;;;5036628;28;20033;-82
2021/03/06 00:14:21;;;;;;;1.70;1.07;;;5.50;58.10;;;;;;5066906;28;20047;-82
2021/03/06 00:16:47;;;;;;;0.23;0.13;;;5.50;58.10;;;;;;5059277;28;20040;-83
2021/03/06 00:19:13;;;;;;;0.00;0.00;;;5.40;58.10;;;;;;5055185;28;20048;-83
2021/03/06 00:21:39;;;;;;;4.63;1.37;;;5.40;58.10;;;;;;5055824;28;20028;-83
2021/03/06 00:24:06;;;;;;;3.87;0.80;;;5.40;58.20;;;;;;5067359;28;20037;-83
2021/03/06 00:26:32;;;;;;;1.40;0.30;;;5.40;58.20;;;;;;5066013;28;20052;-82
2021/03/06 00:28:58;;;;;;;3.03;0.80;;;5.40;58.20;;;;;;5039379;28;20037;-82
2021/03/06 00:31:24;;;;;;;2.37;0.27;;;5.30;58.20;;;;;;5035083;28;20041;-86
2021/03/06 00:33:51;;;;;;;2.53;0.63;;;5.40;58.30;;;;;;5060072;28;20025;-83
2021/03/06 00:36:17;;;;;;;1.27;0.80;;;5.40;58.30;;;;;;5034505;28;20137;-83
2021/03/06 00:38:44;;;;;;;13.40;2.20;;;5.30;58.30;;;;;;5055560;28;20025;-83
2021/03/06 00:41:10;;;;;;;3.83;0.70;;;5.30;58.40;;;;;;5054599;28;20037;-83
2021/03/06 00:43:36;;;;;;;4.00;0.73;;;5.30;58.50;;;;;;5055478;28;20036;-83
2021/03/06 00:46:02;;;;;;;1.30;0.90;;;5.30;58.60;;;;;;5055390;28;20041;-82
2021/03/06 00:48:28;;;;;;;2.47;1.23;;;5.20;58.50;;;;;;5035406;28;20044;-82
2021/03/06 00:50:54;;;;;;;2.70;1.00;;;5.20;58.60;;;;;;5053155;28;20041;-82
2021/03/06 00:53:20;;;;;;;2.07;1.33;;;5.20;58.60;;;;;;5048301;28;20033;-82
2021/03/06 00:55:46;;;;;;;3.13;0.47;;;5.10;58.70;;;;;;5053441;28;20036;-83
2021/03/06 00:58:12;;;;;;;0.17;0.10;;;5.10;58.70;;;;;;5052838;28;20025;-82
2021/03/06 01:00:39;;;;;;;2.43;1.03;;;5.10;58.70;;;;;;5049852;28;20041;-82
2021/03/06 01:03:05;;;;;;;3.37;1.10;;;5.10;58.80;;;;;;5059042;28;20040;-83
2021/03/06 01:05:31;;;;;;;4.47;0.53;;;5.00;58.80;;;;;;5055288;28;20394;-82
2021/03/06 01:07:57;;;;;;;1.33;1.13;;;5.00;58.80;;;;;;5038414;28;20041;-82
2021/03/06 01:10:29;;;;;;;0.50;0.30;;;5.00;58.90;;;;;;5056319;28;20028;-82
2021/03/06 01:12:55;;;;;;;4.77;0.97;;;5.00;58.90;;;;;;5053813;28;20027;-82
2021/03/06 01:15:21;;;;;;;0.73;0.73;;;4.90;58.90;;;;;;5066334;28;20461;-82
2021/03/06 01:17:47;;;;;;;0.10;0.10;;;4.90;58.90;;;;;;5055121;28;20040;-82
2021/03/06 01:20:14;;;;;;;3.17;0.77;;;4.90;59.00;;;;;;5054586;28;20370;-83
2021/03/06 01:22:40;;;;;;;2.53;0.47;;;4.90;59.00;;;;;;5044603;28;20397;-82
2021/03/06 01:25:06;;;;;;;1.50;0.43;;;4.90;59.00;;;;;;5058602;28;20047;-82
2021/03/06 01:27:33;;;;;;;0.30;0.00;;;4.90;59.00;;;;;;5049127;28;20033;-82
2021/03/06 01:29:59;;;;;;;2.47;1.13;;;4.90;59.10;;;;;;5053515;28;20040;-83
2021/03/06 01:32:25;;;;;;;2.67;0.67;;;4.90;59.10;;;;;;5059072;28;20032;-82
2021/03/06 01:34:51;;;;;;;1.17;0.63;;;4.90;59.20;;;;;;5040513;28;20057;-82
2021/03/06 01:37:17;;;;;;;1.20;0.70;;;4.90;59.20;;;;;;5055936;28;20048;-82
2021/03/06 01:39:46;;;;;;;1.10;0.40;;;4.90;59.20;;;;;;5052998;28;20020;-82
2021/03/06 01:42:12;;;;;;;1.10;0.70;;;4.90;59.30;;;;;;5053179;28;20045;-82
2021/03/06 01:44:38;;;;;;;0.60;0.30;;;4.90;59.30;;;;;;5055268;28;20029;-82
2021/03/06 01:47:04;;;;;;;1.97;0.27;;;4.80;59.30;;;;;;5055261;28;20045;-82
2021/03/06 01:49:30;;;;;;;3.13;1.07;;;4.80;59.40;;;;;;5032364;28;20042;-82
2021/03/06 01:51:59;;;;;;;1.03;0.27;;;4.80;59.60;;;;;;5028655;28;20481;-82
2021/03/06 01:54:26;;;;;;;0.57;0.20;;;4.70;59.60;;;;;;5046227;28;20497;-82
2021/03/06 01:56:52;;;;;;;1.17;0.30;;;4.70;59.60;;;;;;5033320;28;20073;-82
2021/03/06 01:59:19;;;;;;;0.03;0.00;;;4.70;59.70;;;;;;5064540;28;20040;-82
2021/03/06 02:01:45;;;;;;;0.10;0.07;;;4.70;59.80;;;;;;5057178;28;20060;-82
2021/03/06 02:04:12;;;;;;;0.03;0.00;;;4.60;59.90;;;;;;5023899;28;20041;-83
2021/03/06 02:06:38;;;;;;;0.07;0.00;;;4.60;60.00;;;;;;5045065;28;20035;-82
2021/03/06 02:09:04;;;;;;;0.00;0.00;;;4.60;60.00;;;;;;5051902;28;20041;-82
2021/03/06 02:11:49;;;;;;;1.80;0.40;;;4.60;60.20;;;;;;5055088;28;20037;-82
2021/03/06 02:14:52;;;;;;;0.97;0.60;;;4.50;60.30;;;;;;5042370;28;20032;-82
2021/03/06 02:17:42;;;;;;;0.93;0.20;;;4.50;60.60;;;;;;5054305;28;20041;-82
2021/03/06 02:20:30;;;;;;;6.90;4.33;;;4.40;60.60;;;;;;5038684;28;20041;-82
2021/03/06 02:23:15;;;;;;;2.87;0.60;;;4.40;60.70;;;;;;5068158;28;20041;-82
2021/03/06 02:26:01;;;;;;;0.40;0.30;;;4.40;60.80;;;;;;5062977;28;20024;-82
2021/03/06 02:28:50;;;;;;;0.90;0.30;;;4.40;60.90;;;;;;5057800;28;20500;-82
2021/03/06 02:31:16;;;;;;;2.43;1.03;;;4.30;61.00;;;;;;5058829;28;20036;-82
2021/03/06 02:33:52;;;;;;;0.10;0.10;;;4.30;61.00;;;;;;5065544;28;20032;-82
2021/03/06 02:36:21;;;;;;;0.57;0.30;;;4.30;61.10;;;;;;5039329;28;20525;-84
2021/03/06 02:38:47;;;;;;;1.03;0.53;;;4.30;61.10;;;;;;5041051;28;20025;-82
2021/03/06 02:41:13;;;;;;;0.40;0.40;;;4.30;61.20;;;;;;5023892;28;20406;-82
2021/03/06 02:43:40;;;;;;;2.37;0.57;;;4.20;61.30;;;;;;5059483;28;20040;-82
2021/03/06 02:46:06;;;;;;;1.37;0.50;;;4.20;61.50;;;;;;5055830;28;20409;-83
2021/03/06 02:48:33;;;;;;;0.33;0.27;;;4.20;62.30;;;;;;5027391;28;20033;-82
2021/03/06 02:51:00;;;;;;;0.30;0.00;;;4.20;61.60;;;;;;5037728;28;20060;-82
2021/03/06 02:53:26;;;;;;;0.00;0.00;;;4.10;61.70;;;;;;5024747;28;20041;-83
2021/03/06 02:55:52;;;;;;;0.53;0.43;;;4.10;61.80;;;;;;5040521;28;20403;-82
2021/03/06 02:58:31;;;;;;;5.53;1.07;;;4.10;61.80;;;;;;5058920;28;20028;-82
2021/03/06 03:01:16;;;;;;;0.43;0.43;;;4.10;61.90;;;;;;5055743;28;20401;-82
2021/03/06 03:03:52;;;;;;;0.00;0.00;;;4.00;62.00;;;;;;5040654;28;20060;-82
2021/03/06 03:06:37;;;;;;;2.90;0.60;;;4.00;62.10;;;;;;5048383;28;20032;-82
2021/03/06 03:09:12;;;;;;;0.20;0.20;;;4.00;62.20;;;;;;5050788;28;20048;-82
2021/03/06 03:12:01;;;;;;;0.10;0.10;;;4.00;62.20;;;;;;5048852;28;20040;-82
2021/03/06 03:14:54;;;;;;;0.10;0.00;;;3.90;62.20;;;;;;5036020;28;20025;-82
2021/03/06 03:17:25;;;;;;;0.00;0.00;;;3.90;62.30;;;;;;5060724;28;20052;-82
2021/03/06 03:20:03;;;;;;;0.32;0.30;;;3.90;62.30;;;;;;5052922;28;20025;-82
2021/03/06 03:22:35;;;;;;;0.47;0.47;;;3.90;62.40;;;;;;5052077;28;20033;-82
2021/03/06 03:25:01;;;;;;;0.30;0.30;;;3.80;62.50;;;;;;5051203;28;20032;-82
2021/03/06 03:27:28;;;;;;;6.37;0.73;;;3.80;62.60;;;;;;5049179;28;20048;-82
2021/03/06 03:29:54;;;;;;;2.37;0.50;;;3.80;62.60;;;;;;5048886;28;20040;-83
2021/03/06 03:32:20;;;;;;;0.67;0.10;;;3.80;62.60;;;;;;5045988;28;20481;-82
2021/03/06 03:34:46;;;;;;;0.00;0.00;;;3.80;62.80;;;;;;5050509;28;20025;-82
2021/03/06 03:37:12;;;;;;;0.10;0.10;;;3.80;62.80;;;;;;5019082;28;20051;-82
2021/03/06 03:39:38;;;;;;;0.00;0.00;;;3.70;62.80;;;;;;5010965;28;20032;-82
2021/03/06 03:42:05;;;;;;;0.20;0.10;;;3.70;62.80;;;;;;5053286;28;20045;-82
2021/03/06 03:44:33;;;;;;;0.10;0.03;;;3.80;62.90;;;;;;5041221;28;20036;-82
2021/03/06 03:46:59;;;;;;;5.17;1.53;;;3.70;62.90;;;;;;5055630;28;20500;-82
2021/03/06 03:49:25;;;;;;;0.50;0.30;;;3.70;62.90;;;;;;5056489;28;20029;-82
2021/03/06 03:51:51;;;;;;;0.97;0.67;;;3.70;62.90;;;;;;5049991;28;20031;-82
2021/03/06 03:54:17;;;;;;;0.00;0.00;;;3.70;63.00;;;;;;5047795;28;20040;-82
2021/03/06 03:56:44;;;;;;;1.80;0.43;;;3.70;63.00;;;;;;5039708;28;20037;-82
2021/03/06 03:59:10;;;;;;;4.90;0.67;;;3.60;63.00;;;;;;5023494;28;20041;-82
2021/03/06 04:01:43;;;;;;;0.40;0.20;;;3.70;63.00;;;;;;5038413;28;20033;-82
2021/03/06 04:04:30;;;;;;;2.00;0.60;;;3.70;63.00;;;;;;5055921;28;20028;-82
2021/03/06 04:06:57;;;;;;;0.00;0.00;;;3.70;62.90;;;;;;5056068;28;20512;-82
2021/03/06 04:09:23;;;;;;;1.10;0.50;;;3.60;62.90;;;;;;5036377;28;20397;-82
2021/03/06 04:11:50;;;;;;;0.10;0.03;;;3.60;63.00;;;;;;5038648;28;20041;-82
2021/03/06 04:14:16;;;;;;;0.63;0.47;;;3.60;63.00;;;;;;5056848;28;20048;-82
2021/03/06 04:16:42;;;;;;;8.03;0.33;;;3.60;63.00;;;;;;5053015;28;20045;-82
2021/03/06 04:19:08;;;;;;;4.20;0.93;;;3.60;63.00;;;;;;5048914;28;20028;-82
2021/03/06 04:21:34;;;;;;;0.20;0.00;;;3.60;62.90;;;;;;5055477;28;20029;-82
2021/03/06 04:24:00;;;;;;;0.83;0.30;;;3.60;62.80;;;;;;5069957;28;20040;-82
2021/03/06 04:26:26;;;;;;;0.83;0.67;;;3.60;62.80;;;;;;5037831;28;20040;-82
2021/03/06 04:28:53;;;;;;;0.10;0.00;;;3.60;63.00;;;;;;5052499;28;20032;-83
2021/03/06 04:31:19;;;;;;;1.40;0.73;;;3.60;63.00;;;;;;5038452;28;20037;-82
2021/03/06 04:33:45;;;;;;;0.80;0.50;;;3.50;63.00;;;;;;5036632;28;20382;-82
2021/03/06 04:36:11;;;;;;;4.93;0.67;;;3.50;63.10;;;;;;5050753;28;20032;-82
2021/03/06 04:38:37;;;;;;;1.47;0.47;;;3.50;63.10;;;;;;5024543;28;20032;-82
2021/03/06 04:41:03;;;;;;;0.67;0.30;;;3.50;63.10;;;;;;5055710;28;20032;-82
2021/03/06 04:43:29;;;;;;;0.37;0.20;;;3.50;63.10;;;;;;5057240;28;20521;-82
2021/03/06 04:45:56;;;;;;;0.20;0.20;;;3.50;63.10;;;;;;5054562;28;20040;-82
2021/03/06 04:48:22;;;;;;;0.67;0.20;;;3.40;63.10;;;;;;5051984;28;20411;-82
2021/03/06 04:50:48;;;;;;;0.00;0.00;;;3.40;63.10;;;;;;5054036;28;20025;-82
2021/03/06 04:53:14;;;;;;;0.77;0.40;;;3.40;63.30;;;;;;5049945;28;20473;-82
2021/03/06 04:55:40;;;;;;;0.57;0.10;;;3.40;63.30;;;;;;5058484;28;20030;-83
2021/03/06 04:58:06;;;;;;;1.70;0.70;;;3.40;63.30;;;;;;5038168;28;20043;-82
2021/03/06 05:00:32;;;;;;;0.00;0.00;;;3.40;63.20;;;;;;5053333;28;20048;-82
2021/03/06 05:02:58;;;;;;;0.00;0.00;;;3.30;63.20;;;;;;5052159;28;20037;-82
2021/03/06 05:05:24;;;;;;;1.23;0.70;;;3.30;63.30;;;;;;5055232;28;20029;-83
2021/03/06 05:07:50;;;;;;;1.00;0.47;;;3.30;63.30;;;;;;5055428;28;20029;-82
2021/03/06 05:10:19;;;;;;;2.73;0.83;;;3.30;63.30;;;;;;5056053;28;20029;-82
2021/03/06 05:12:45;;;;;;;0.40;0.40;;;3.30;63.30;;;;;;5037838;28;20031;-82
2021/03/06 05:15:11;;;;;;;0.40;0.20;;;3.30;63.30;;;;;;5051373;28;20040;-82
2021/03/06 05:17:37;;;;;;;0.60;0.17;;;3.30;63.40;;;;;;5059347;28;20041;-82
2021/03/06 05:20:04;;;;;;;0.00;0.00;;;3.30;63.40;;;;;;5055237;28;20056;-82
2021/03/06 05:22:30;;;;;;;0.80;0.67;;;3.20;63.40;;;;;;5056079;28;20025;-82
2021/03/06 05:24:56;;;;;;;0.63;0.30;;;3.20;63.50;;;;;;5037987;28;20036;-82
2021/03/06 05:27:22;;;;;;;0.30;0.20;;;3.20;63.60;;;;;;5035347;28;20040;-82
2021/03/06 05:29:48;;;;;;;1.67;0.47;;;3.20;63.60;;;;;;5020948;28;20029;-83
2021/03/06 05:32:14;;;;;;;0.00;0.00;;;3.10;63.60;;;;;;5055802;28;20033;-83
2021/03/06 05:34:41;;;;;;;0.13;0.13;;;3.10;63.60;;;;;;5057850;28;20021;-82
2021/03/06 05:37:07;;;;;;;0.67;0.20;;;3.10;63.60;;;;;;5064484;28;20041;-82
2021/03/06 05:39:33;;;;;;;0.10;0.10;;;3.10;63.70;;;;;;5053170;28;20028;-83
2021/03/06 05:41:59;;;;;;;0.00;0.00;;;3.00;63.70;;;;;;5054894;28;20052;-82
2021/03/06 05:44:25;;;;;;;0.63;0.37;;;3.10;63.70;;;;;;5036193;28;20374;-82
2021/03/06 05:46:51;;;;;;;1.13;0.70;;;3.10;63.70;;;;;;5048735;28;20025;-83
2021/03/06 05:49:17;;;;;;;0.00;0.00;;;3.10;63.80;;;;;;5051903;28;20477;-83
2021/03/06 05:51:43;;;;;;;0.00;0.00;;;3.00;63.70;;;;;;5054145;28;20029;-82
2021/03/06 05:54:11;;;;;;;0.20;0.20;;;3.00;63.70;;;;;;5043215;28;20047;-82
2021/03/06 05:56:39;;;;;;;0.00;0.00;;;3.00;63.70;;;;;;5049805;28;20043;-82
2021/03/06 05:59:11;;;;;;;4.17;0.47;;;3.00;63.80;;;;;;5037360;28;20398;-82
2021/03/06 06:01:38;;;;;;;2.77;0.53;;;2.90;64.70;;;;;;5056394;28;20033;-80
2021/03/06 06:04:05;;;;;;;0.53;0.33;;;2.90;64.00;;;;;;5050815;28;20025;-81
2021/03/06 06:06:34;;;;;;;1.10;0.40;;;2.90;63.90;;;;;;5052690;28;20083;-81
2021/03/06 06:09:01;;;;;;;3.37;0.50;;;2.90;64.00;;;;;;5052376;28;20044;-82
2021/03/06 06:11:27;;;;;;;2.73;0.40;;;2.90;64.00;;;;;;5050466;28;20028;-81
2021/03/06 06:13:57;;;;;;;1.13;0.43;;;2.90;64.00;;;;;;5056376;28;20036;-81
2021/03/06 06:16:23;;;;;;;3.17;0.50;;;2.90;64.00;;;;;;5049490;28;20049;-84
2021/03/06 06:18:50;;;;;;;1.97;1.07;;;2.90;64.00;;;;;;5062389;28;20035;-84
2021/03/06 06:21:44;;;;;;;0.77;0.50;;;2.90;64.00;;;;;;5034328;28;20048;-91
2021/03/06 06:24:12;;;;;;;0.53;0.20;;;2.90;64.10;;;;;;5055503;28;20052;-83
2021/03/06 06:26:45;;;;;;;1.40;0.57;;;2.90;64.00;;;;;;5054500;28;20036;-84
2021/03/06 06:29:11;;;;;;;1.13;0.60;;;2.90;63.90;;;;;;5053991;28;20033;-84
2021/03/06 06:31:37;;;;;;;3.90;0.80;;;2.90;63.90;;;;;;5053425;28;20033;-83
2021/03/06 06:34:12;;;;;;;0.77;0.40;;;2.90;63.90;;;;;;5045233;28;20036;-83
2021/03/06 06:36:39;;;;;;;3.70;0.33;;;2.90;64.00;;;;;;5047924;28;20044;-83
2021/03/06 06:39:06;;;;;;;0.80;0.50;;;2.80;64.00;;;;;;5033844;28;20044;-84
2021/03/06 06:41:51;;;;;;;1.50;0.60;;;2.80;64.10;;;;;;5054950;28;20041;-85
2021/03/06 06:44:18;;;;;;;0.13;0.13;;;2.80;64.10;;;;;;5053460;28;20020;-84
2021/03/06 06:46:44;;;;;;;1.47;0.53;;;2.80;64.10;;;;;;5040573;28;20039;-84
2021/03/06 06:49:10;;;;;;;0.23;0.17;;;2.80;64.10;;;;;;5053281;28;20036;-84
2021/03/06 06:51:36;;;;;;;1.13;0.67;;;2.80;64.10;;;;;;5052606;28;20024;-84
2021/03/06 06:54:08;;;;;;;1.10;0.63;;;2.80;64.20;;;;;;5050431;28;20029;-83
2021/03/06 06:56:34;;;;;;;1.47;0.70;;;2.80;64.20;;;;;;5054349;28;20029;-84
2021/03/06 06:59:05;;;;;;;0.30;0.20;;;2.80;64.20;;;;;;5059944;28;20389;-83
2021/03/06 07:01:37;;;;;;;0.53;0.37;;;2.80;64.30;;;;;;5058378;28;20033;-83
2021/03/06 07:04:05;;;;;;;0.70;0.43;;;2.80;64.30;;;;;;5034353;28;20032;-84
2021/03/06 07:06:32;;;;;;;1.30;0.43;;;2.80;64.30;;;;;;5050921;28;20033;-84
2021/03/06 07:09:24;;;;;;;0.97;0.30;;;2.80;64.30;;;;;;5047642;28;20385;-84
2021/03/06 07:11:50;;;;;;;6.90;2.03;;;2.80;64.40;;;;;;5079341;28;20040;-84
2021/03/06 07:14:37;;;;;;;4.00;2.43;;;2.80;64.30;;;;;;5020869;28;20029;-84
2021/03/06 07:17:03;;;;;;;0.00;0.00;;;2.90;64.30;;;;;;5063526;28;20045;-84
2021/03/06 07:19:30;;;;;;;0.20;0.10;;;2.90;64.20;;;;;;5057355;28;20029;-85
2021/03/06 07:21:58;;;;;;;0.50;0.20;;;2.90;64.10;;;;;;5059134;28;20032;-85
2021/03/06 07:24:27;;;;;;;0.30;0.30;;;3.00;64.10;;;;;;5054369;28;20474;-85
2021/03/06 07:26:54;;;;;;;1.23;0.20;;;3.00;64.10;;;;;;5022242;28;20048;-84
2021/03/06 07:29:21;;;;;;;0.03;0.03;;;3.00;64.00;;;;;;5050680;28;20033;-85
2021/03/06 07:31:51;;;;;;;1.60;0.13;;;3.10;64.10;;;;;;5041104;28;20041;-82
2021/03/06 07:34:19;;;;;;;0.00;0.00;;;3.10;64.10;;;;;;5052070;28;20031;-84
2021/03/06 07:36:45;;;;;;;0.37;0.30;;;3.10;64.00;;;;;;5041413;28;20049;-82
2021/03/06 07:39:13;;;;;;;1.07;0.90;;;3.20;63.90;;;;;;5035855;28;20025;-82
2021/03/06 07:41:41;;;;;;;0.47;0.47;;;3.50;63.60;;;;;;5070034;28;20505;-85
2021/03/06 07:44:07;;;;;;;0.57;0.53;;;3.90;63.60;;;;;;5039893;28;20083;-87
2021/03/06 07:46:39;;;;;;;0.20;0.20;;;4.20;61.90;;;;;;5060128;28;20501;-86
2021/03/06 07:49:14;;;;;;;1.23;0.70;;;4.50;61.40;;;;;;5058531;28;20021;-86
2021/03/06 07:51:44;;;;;;;0.17;0.07;;;4.70;60.90;;;;;;5051139;28;20033;-85
2021/03/06 07:54:14;;;;;;;1.07;0.63;;;4.80;60.10;;;;;;5050925;28;20025;-84
2021/03/06 07:56:43;;;;;;;2.20;0.10;;;5.00;60.10;;;;;;5031858;28;20379;-83
2021/03/06 07:59:09;;;;;;;1.03;0.50;;;5.20;59.80;;;;;;5033160;28;20049;-84
2021/03/06 08:01:35;;;;;;;0.00;0.00;;;5.40;59.70;;;;;;5050457;28;20029;-84
2021/03/06 08:04:02;;;;;;;0.00;0.00;;;5.50;59.40;;;;;;5047290;28;20029;-83
2021/03/06 08:06:30;;;;;;;0.30;0.30;;;5.60;59.30;;;;;;5034870;28;20032;-81
2021/03/06 08:09:00;;;;;;;1.20;0.70;;;5.60;59.20;;;;;;5052031;28;20040;-77
2021/03/06 08:11:40;;;;;;;0.15;0.15;;;5.70;59.20;;;;;;5050149;28;20488;-86
2021/03/06 08:14:30;;;;;;;0.97;0.77;;;5.90;59.00;;;;;;5049665;28;20044;-86
2021/03/06 08:16:56;;;;;;;0.10;0.10;;;6.00;58.80;;;;;;5048281;28;20399;-85
2021/03/06 08:19:23;;;;;;;0.20;0.03;;;6.10;58.60;;;;;;5050651;28;20025;-86
2021/03/06 08:21:50;;;;;;;2.63;0.80;;;6.20;58.60;;;;;;5050696;28;20112;-85
2021/03/06 08:24:18;;;;;;;0.30;0.30;;;6.30;58.50;;;;;;5050713;28;20032;-85
2021/03/06 08:26:51;;;;;;;0.30;0.30;;;6.30;58.30;;;;;;5053705;28;20390;-85
2021/03/06 08:29:21;;;;;;;0.10;0.00;;;6.40;58.30;;;;;;5052106;28;20061;-83
2021/03/06 08:32:15;;;;;;;2.23;0.40;;;6.40;58.20;;;;;;5048346;28;20044;-85
2021/03/06 08:34:59;;;;;;;0.93;0.30;;;6.50;58.10;;;;;;5046016;28;20033;-83
2021/03/06 08:37:32;;;;;;;0.70;0.37;;;6.50;58.00;;;;;;5050338;28;20057;-84
2021/03/06 08:40:07;;;;;;;1.83;0.63;;;6.60;57.90;;;;;;5049356;28;20528;-83
2021/03/06 08:42:34;;;;;;;2.43;0.80;;;6.70;57.80;;;;;;5052188;28;20401;-83
2021/03/06 08:45:31;;;;;;;0.00;0.00;;;6.70;57.70;;;;;;5051811;28;20474;-83
2021/03/06 08:48:01;;;;;;;0.10;0.07;;;6.80;57.60;;;;;;4994714;28;20173;-88
2021/03/06 08:50:28;;;;;;;0.00;0.00;;;7.00;57.60;;;;;;4993801;28;20410;-86
2021/03/06 08:53:01;;;;;;;0.87;0.30;;;7.00;57.30;;;;;;4993102;28;20046;-86
2021/03/06 08:55:28;;;;;;;1.97;0.83;;;7.00;57.30;;;;;;4988988;28;20033;-83
2021/03/06 08:57:55;;;;;;;0.27;0.20;;;7.00;57.20;;;;;;4988771;28;20054;-83
2021/03/06 09:00:31;;;;;;;0.17;0.07;;;7.00;57.10;;;;;;4979182;28;20030;-83
2021/03/06 09:02:57;;;;;;;2.80;0.83;;;7.10;57.10;;;;;;4981369;28;20031;-83
2021/03/06 09:05:25;;;;;;;0.67;0.40;;;7.10;57.00;;;;;;4989863;28;20045;-83
2021/03/06 09:07:53;;;;;;;0.87;0.47;;;7.20;56.90;;;;;;4988668;28;20057;-83
2021/03/06 09:10:31;;;;;;;0.57;0.37;;;7.40;57.00;;;;;;5009874;28;20128;-84
2021/03/06 09:13:02;;;;;;;2.37;0.10;;;7.60;56.70;;;;;;4982634;28;20034;-84
2021/03/06 09:15:35;;;;;;;1.65;0.98;;;7.70;56.50;;;;;;4993559;28;20037;-83
2021/03/06 09:18:01;;;;;;;5.37;0.77;;;7.80;56.50;;;;;;4986510;28;20508;-82
2021/03/06 09:20:28;;;;;;;1.43;0.60;;;8.00;56.30;;;;;;4997293;28;20030;-82
2021/03/06 09:22:54;;;;;;;1.23;0.13;;;8.00;56.10;;;;;;4987731;28;20042;-82
2021/03/06 09:25:38;;;;;;;2.75;0.55;;;8.00;56.20;;;;;;5052278;28;20493;-82
2021/03/06 09:28:11;;;;;;;1.67;0.60;;;8.10;56.30;;;;;;5056199;28;20029;-85
2021/03/06 09:30:39;;;;;;;0.10;0.10;;;8.30;56.20;;;;;;5042103;28;20032;-82
2021/03/06 09:33:23;;;;;;;2.35;1.65;;;8.60;55.90;;;;;;5052119;28;20029;-81
2021/03/06 09:36:12;;;;;;;0.60;0.35;;;8.70;55.80;;;;;;5044430;28;20482;-82
2021/03/06 09:38:45;;;;;;;1.42;1.00;;;8.80;55.70;;;;;;5051401;28;20033;-82
2021/03/06 09:41:12;;;;;;;1.25;0.68;;;9.00;55.70;;;;;;5044479;28;20017;-82
2021/03/06 09:43:40;;;;;;;1.25;0.90;;;9.10;55.20;;;;;;5049219;28;20041;-83
2021/03/06 09:46:16;;;;;;;1.33;0.40;;;9.10;55.00;;;;;;5048695;28;20040;-81
2021/03/06 09:48:52;;;;;;;0.70;0.20;;;9.00;55.00;;;;;;5046289;28;20033;-78
2021/03/06 09:51:19;;;;;;;0.50;0.47;;;8.90;55.20;;;;;;5046658;28;20330;-80
2021/03/06 09:53:57;;;;;;;0.15;0.15;;;8.70;55.20;;;;;;5065918;28;20404;-80
2021/03/06 09:56:23;;;;;;;0.43;0.43;;;8.60;55.50;;;;;;5046525;28;20025;-81
2021/03/06 09:59:03;;;;;;;1.45;0.75;;;8.50;55.50;;;;;;5048853;28;20414;-79
2021/03/06 10:01:30;;;;;;;1.58;0.57;;;8.50;55.50;;;;;;5042416;28;20033;-81
2021/03/06 10:03:56;;;;;;;1.52;0.68;;;8.60;55.60;;;;;;5047239;28;20029;-80
2021/03/06 10:06:24;;;;;;;1.27;0.45;;;8.70;55.50;;;;;;5048986;28;20037;-80
2021/03/06 10:08:55;;;;;;;1.13;0.17;;;8.80;55.30;;;;;;5047728;28;20409;-82
2021/03/06 10:11:29;;;;;;;0.95;0.45;;;8.90;55.30;;;;;;5033441;28;20036;-82
2021/03/06 10:13:55;;;;;;;0.08;0.05;;;9.00;55.20;;;;;;5017282;28;20033;-82
2021/03/06 10:16:21;;;;;;;0.00;0.00;;;9.00;55.00;;;;;;5057166;28;20033;-83
2021/03/06 10:18:47;;;;;;;4.00;0.28;;;9.10;55.00;;;;;;5037210;28;20045;-85
2021/03/06 10:21:15;;;;;;;1.70;0.65;;;9.00;55.00;;;;;;5049528;28;20044;-85
2021/03/06 10:23:41;;;;;;;2.40;0.43;;;9.10;55.00;;;;;;5063832;28;20028;-85
2021/03/06 10:26:26;;;;;;;1.10;0.60;;;9.20;55.00;;;;;;5020380;28;20489;-83
2021/03/06 10:28:57;;;;;;;0.32;0.10;;;9.40;54.90;;;;;;5054025;28;20040;-83
2021/03/06 10:31:36;;;;;;;2.00;0.90;;;9.60;54.60;;;;;;5053512;28;20052;-86
2021/03/06 10:34:15;;;;;;;1.42;0.47;;;9.60;54.40;;;;;;5048167;28;20027;-83
2021/03/06 10:36:42;;;;;;;4.97;0.77;;;9.80;54.50;;;;;;5050985;28;20028;-86
2021/03/06 10:39:18;;;;;;;1.13;0.70;;;9.90;54.20;;;;;;5051695;28;20037;-84
2021/03/06 10:41:45;;;;;;;0.80;0.47;;;9.90;54.20;;;;;;5058794;28;20067;-82
2021/03/06 10:44:11;;;;;;;0.88;0.60;;;10.00;54.20;;;;;;5057698;28;20033;-81
2021/03/06 10:46:37;;;;;;;2.90;0.43;;;10.00;53.80;;;;;;5056481;28;20044;-84
2021/03/06 10:49:04;;;;;;;2.65;0.70;;;10.00;54.00;;;;;;5057504;28;20052;-82
2021/03/06 10:51:44;;;;;;;0.98;0.30;;;10.00;53.90;;;;;;5056133;28;20025;-84
2021/03/06 10:54:11;;;;;;;2.80;0.17;;;10.10;53.90;;;;;;5049108;28;20481;-86
2021/03/06 10:56:37;;;;;;;0.32;0.32;;;10.10;53.80;;;;;;5038031;28;20045;-84
2021/03/06 10:59:03;;;;;;;2.92;0.75;;;10.20;53.60;;;;;;5039929;28;20037;-88
2021/03/06 11:01:33;;;;;;;2.38;0.55;;;10.20;53.60;;;;;;5057042;28;20040;-84
2021/03/06 11:03:59;;;;;;;0.77;0.60;;;10.30;53.50;;;;;;5057138;28;20388;-85
2021/03/06 11:06:25;;;;;;;1.02;0.15;;;10.40;53.50;;;;;;5054155;28;20025;-87
2021/03/06 11:09:03;;;;;;;1.67;0.57;;;10.50;53.50;;;;;;5069859;28;20032;-87
2021/03/06 11:11:29;;;;;;;1.65;0.30;;;10.60;53.30;;;;;;5068156;28;20021;-87
2021/03/06 11:13:56;;;;;;;1.13;0.30;;;10.60;53.20;;;;;;5060762;28;20029;-86
2021/03/06 11:16:38;;;;;;;1.45;0.68;;;10.60;53.10;;;;;;5055800;28;20026;-87
2021/03/06 11:19:05;;;;;;;0.20;0.10;;;10.50;53.20;;;;;;5060343;28;20036;-87
2021/03/06 11:21:31;;;;;;;1.92;0.43;;;10.60;53.20;;;;;;5052351;28;20034;-88
2021/03/06 11:23:57;;;;;;;3.97;0.35;;;10.60;53.00;;;;;;5052793;28;20036;-88
2021/03/06 11:26:23;;;;;;;1.73;0.60;;;10.70;53.10;;;;;;5058253;28;20052;-85
2021/03/06 11:28:49;;;;;;;1.23;0.30;;;10.70;53.00;;;;;;5037324;28;20052;-84
2021/03/06 11:31:16;;;;;;;4.00;1.30;;;10.80;53.00;;;;;;5050294;28;20041;-84
2021/03/06 11:33:42;;;;;;;0.80;0.47;;;10.90;53.50;;;;;;5039556;28;20048;-83
2021/03/06 11:36:08;;;;;;;1.77;0.63;;;11.00;52.80;;;;;;5052409;28;20037;-83
2021/03/06 11:38:34;;;;;;;0.70;0.63;;;11.00;52.50;;;;;;5070218;28;20044;-84
2021/03/06 11:41:00;;;;;;;0.08;0.08;;;11.00;52.60;;;;;;5057261;28;20040;-85
2021/03/06 11:43:26;;;;;;;2.60;1.05;;;11.00;52.50;;;;;;5058095;28;20079;-84
2021/03/06 11:45:52;;;;;;;2.17;0.50;;;11.00;52.60;;;;;;5038576;28;20036;-83
2021/03/06 11:48:19;;;;;;;0.08;0.08;;;11.20;52.50;;;;;;5052532;28;20367;-83
2021/03/06 11:50:46;;;;;;;1.33;0.15;;;11.20;52.30;;;;;;5055674;28;20033;-84
2021/03/06 11:53:12;;;;;;;3.83;0.95;;;11.10;52.10;;;;;;5055594;28;20033;-83
2021/03/06 11:55:39;;;;;;;0.32;0.22;;;11.10;52.20;;;;;;5056450;28;20021;-83
2021/03/06 11:58:05;;;;;;;0.63;0.25;;;11.10;52.20;;;;;;5056275;28;20051;-85
2021/03/06 12:00:32;;;;;;;2.67;0.38;;;11.10;52.20;;;;;;5050868;28;20036;-82
2021/03/06 12:02:58;;;;;;;0.38;0.20;;;11.10;52.00;;;;;;5064855;28;20033;-83
2021/03/06 12:05:24;;;;;;;0.65;0.32;;;11.10;52.10;;;;;;5040460;28;20466;-83
2021/03/06 12:07:51;;;;;;;0.20;0.00;;;11.20;51.90;;;;;;5062497;28;20029;-83
2021/03/06 12:10:19;;;;;;;1.65;0.65;;;11.20;52.40;;;;;;5038299;28;20025;-81
2021/03/06 12:12:45;;;;;;;5.00;0.90;;;11.20;51.60;;;;;;5053460;28;20028;-81
2021/03/06 12:15:13;;;;;;;0.52;0.35;;;11.30;51.50;;;;;;5066936;28;20104;-82
2021/03/06 12:17:39;;;;;;;1.92;0.98;;;11.30;51.50;;;;;;5044687;28;20025;-83
2021/03/06 12:20:06;;;;;;;4.30;0.57;;;11.30;51.60;;;;;;5029965;28;20036;-81
2021/03/06 12:22:32;;;;;;;1.48;0.75;;;11.40;51.40;;;;;;5044486;28;20029;-81
2021/03/06 12:24:58;;;;;;;0.98;0.47;;;11.50;51.30;;;;;;5054015;28;20027;-81
2021/03/06 12:27:25;;;;;;;1.35;0.45;;;11.60;51.30;;;;;;5053246;28;20040;-81
2021/03/06 12:29:51;;;;;;;0.65;0.28;;;11.70;51.20;;;;;;5054386;28;20469;-82
2021/03/06 12:32:17;;;;;;;0.63;0.08;;;11.80;51.10;;;;;;5048417;28;20095;-81
2021/03/06 12:34:43;;;;;;;1.55;1.02;;;11.90;50.80;;;;;;5055764;28;20029;-81
2021/03/06 12:37:09;;;;;;;2.00;0.10;;;12.00;50.70;;;;;;5034784;28;20402;-80
2021/03/06 12:39:35;;;;;;;0.38;0.38;;;12.00;50.40;;;;;;5055419;28;20036;-83
2021/03/06 12:42:02;;;;;;;0.55;0.47;;;12.10;50.40;;;;;;5052131;28;20040;-80
2021/03/06 12:44:28;;;;;;;1.15;0.52;;;12.00;49.90;;;;;;5062692;28;20044;-80
2021/03/06 12:46:54;;;;;;;4.93;1.40;;;11.90;49.80;;;;;;5054234;28;20044;-80
2021/03/06 12:49:20;;;;;;;1.85;0.90;;;11.90;49.90;;;;;;5055503;28;20040;-80
2021/03/06 12:51:46;;;;;;;0.65;0.40;;;11.90;50.00;;;;;;5052577;28;20033;-80
2021/03/06 12:54:13;;;;;;;0.55;0.17;;;11.90;49.60;;;;;;5052062;28;20044;-80
2021/03/06 12:56:39;;;;;;;0.70;0.65;;;11.90;50.20;;;;;;5034801;28;20475;-80
2021/03/06 12:59:05;;;;;;;0.82;0.32;;;11.90;49.50;;;;;;5028956;28;20045;-80
2021/03/06 13:01:31;;;;;;;1.35;0.30;;;11.90;49.50;;;;;;5065707;28;20040;-80
2021/03/06 13:03:57;;;;;;;0.98;0.17;;;12.00;49.50;;;;;;5063700;28;20393;-80
2021/03/06 13:06:24;;;;;;;0.65;0.15;;;12.00;49.40;;;;;;5051895;28;20029;-81